sensor_id;sensor_type;location;lat;lon;timestamp;P1;durP1;ratioP1;P2;durP2;ratioP2
12155;SDS011;6141;49.092;8.516;2024-01-15T00:01:31;51.10;;;27.07;;
12155;SDS011;6141;49.092;8.516;2024-01-15T00:03:59;52.50;;;26.97;;
12155;SDS011;6141;49.092;8.516;2024-01-15T00:06:27;50.30;;;26.50;;
12155;SDS011;6141;49.092;8.516;2024-01-15T00:08:57;48.80;;;26.60;;
12155;SDS011;6141;49.092;8.516;2024-01-15T00:11:25;49.10;;;26.67;;
12155;SDS011;6141;49.092;8.516;2024-01-15T00:13:53;48.77;;;25.17;;
12155;SDS011;6141;49.092;8.516;2024-01-15T00:16:21;49.90;;;27.23;;
12155;SDS011;6141;49.092;8.516;2024-01-15T00:18:50;51.80;;;27.07;;
12155;SDS011;6141;49.092;8.516;2024-01-15T00:21:18;51.00;;;26.93;;
12155;SDS011;6141;49.092;8.516;2024-01-15T00:23:46;50.57;;;25.17;;
12155;SDS011;6141;49.092;8.516;2024-01-15T00:26:16;46.20;;;25.37;;
12155;SDS011;6141;49.092;8.516;2024-01-15T00:28:44;51.87;;;26.80;;
12155;SDS011;6141;49.092;8.516;2024-01-15T00:31:12;46.20;;;25.90;;
12155;SDS011;6141;49.092;8.516;2024-01-15T00:33:43;44.80;;;24.70;;
12155;SDS011;6141;49.092;8.516;2024-01-15T00:36:11;43.97;;;25.50;;
12155;SDS011;6141;49.092;8.516;2024-01-15T00:38:41;45.03;;;25.30;;
12155;SDS011;6141;49.092;8.516;2024-01-15T00:41:09;48.27;;;26.30;;
12155;SDS011;6141;49.092;8.516;2024-01-15T00:43:38;43.33;;;25.00;;
12155;SDS011;6141;49.092;8.516;2024-01-15T00:46:06;42.50;;;24.13;;
12155;SDS011;6141;49.092;8.516;2024-01-15T00:48:34;43.67;;;24.73;;
12155;SDS011;6141;49.092;8.516;2024-01-15T00:51:03;50.50;;;26.63;;
12155;SDS011;6141;49.092;8.516;2024-01-15T00:53:32;43.00;;;24.70;;
12155;SDS011;6141;49.092;8.516;2024-01-15T00:56:00;48.47;;;26.47;;
12155;SDS011;6141;49.092;8.516;2024-01-15T00:58:29;46.03;;;25.73;;
12155;SDS011;6141;49.092;8.516;2024-01-15T01:00:59;49.43;;;25.97;;
12155;SDS011;6141;49.092;8.516;2024-01-15T01:03:27;45.57;;;23.83;;
12155;SDS011;6141;49.092;8.516;2024-01-15T01:05:55;45.07;;;24.63;;
12155;SDS011;6141;49.092;8.516;2024-01-15T01:08:24;44.33;;;24.00;;
12155;SDS011;6141;49.092;8.516;2024-01-15T01:10:52;42.47;;;23.93;;
12155;SDS011;6141;49.092;8.516;2024-01-15T01:13:20;44.53;;;25.40;;
12155;SDS011;6141;49.092;8.516;2024-01-15T01:15:49;44.87;;;24.67;;
12155;SDS011;6141;49.092;8.516;2024-01-15T01:18:18;43.40;;;23.33;;
12155;SDS011;6141;49.092;8.516;2024-01-15T01:20:47;44.00;;;23.73;;
12155;SDS011;6141;49.092;8.516;2024-01-15T01:23:16;44.77;;;26.00;;
12155;SDS011;6141;49.092;8.516;2024-01-15T01:25:44;43.77;;;24.37;;
12155;SDS011;6141;49.092;8.516;2024-01-15T01:28:11;48.97;;;26.30;;
12155;SDS011;6141;49.092;8.516;2024-01-15T01:30:39;35.20;;;20.40;;
12155;SDS011;6141;49.092;8.516;2024-01-15T01:33:08;44.03;;;24.23;;
12155;SDS011;6141;49.092;8.516;2024-01-15T01:35:37;45.17;;;24.30;;
12155;SDS011;6141;49.092;8.516;2024-01-15T01:38:05;45.70;;;25.13;;
12155;SDS011;6141;49.092;8.516;2024-01-15T01:40:34;45.13;;;23.93;;
12155;SDS011;6141;49.092;8.516;2024-01-15T01:43:02;45.43;;;24.50;;
12155;SDS011;6141;49.092;8.516;2024-01-15T01:45:30;44.87;;;24.20;;
12155;SDS011;6141;49.092;8.516;2024-01-15T01:47:59;43.83;;;22.90;;
12155;SDS011;6141;49.092;8.516;2024-01-15T01:50:28;46.87;;;24.43;;
12155;SDS011;6141;49.092;8.516;2024-01-15T01:52:59;46.80;;;24.93;;
12155;SDS011;6141;49.092;8.516;2024-01-15T01:55:30;45.90;;;24.27;;
12155;SDS011;6141;49.092;8.516;2024-01-15T01:58:00;44.23;;;24.57;;
12155;SDS011;6141;49.092;8.516;2024-01-15T02:00:29;47.70;;;25.37;;
12155;SDS011;6141;49.092;8.516;2024-01-15T02:02:59;46.23;;;24.80;;
12155;SDS011;6141;49.092;8.516;2024-01-15T02:05:30;50.60;;;27.47;;
12155;SDS011;6141;49.092;8.516;2024-01-15T02:08:00;41.27;;;24.43;;
12155;SDS011;6141;49.092;8.516;2024-01-15T02:10:28;46.03;;;25.53;;
12155;SDS011;6141;49.092;8.516;2024-01-15T02:12:56;45.43;;;25.37;;
12155;SDS011;6141;49.092;8.516;2024-01-15T02:15:25;44.27;;;24.07;;
12155;SDS011;6141;49.092;8.516;2024-01-15T02:17:56;46.67;;;24.83;;
12155;SDS011;6141;49.092;8.516;2024-01-15T02:20:29;44.40;;;24.50;;
12155;SDS011;6141;49.092;8.516;2024-01-15T02:23:06;43.60;;;23.77;;
12155;SDS011;6141;49.092;8.516;2024-01-15T02:25:37;45.23;;;23.73;;
12155;SDS011;6141;49.092;8.516;2024-01-15T02:28:07;40.70;;;23.13;;
12155;SDS011;6141;49.092;8.516;2024-01-15T02:30:37;38.83;;;21.67;;
12155;SDS011;6141;49.092;8.516;2024-01-15T02:33:06;41.93;;;23.90;;
12155;SDS011;6141;49.092;8.516;2024-01-15T02:35:36;40.13;;;21.90;;
12155;SDS011;6141;49.092;8.516;2024-01-15T02:38:05;41.40;;;23.20;;
12155;SDS011;6141;49.092;8.516;2024-01-15T02:40:35;45.37;;;24.77;;
12155;SDS011;6141;49.092;8.516;2024-01-15T02:43:03;40.33;;;23.43;;
12155;SDS011;6141;49.092;8.516;2024-01-15T02:45:32;41.00;;;22.73;;
12155;SDS011;6141;49.092;8.516;2024-01-15T02:48:01;44.17;;;24.50;;
12155;SDS011;6141;49.092;8.516;2024-01-15T02:50:30;42.07;;;23.57;;
12155;SDS011;6141;49.092;8.516;2024-01-15T02:52:58;40.53;;;21.90;;
12155;SDS011;6141;49.092;8.516;2024-01-15T02:55:28;43.20;;;22.43;;
12155;SDS011;6141;49.092;8.516;2024-01-15T02:57:57;40.17;;;22.23;;
12155;SDS011;6141;49.092;8.516;2024-01-15T03:00:25;39.80;;;21.17;;
12155;SDS011;6141;49.092;8.516;2024-01-15T03:02:54;37.17;;;21.30;;
12155;SDS011;6141;49.092;8.516;2024-01-15T03:05:22;39.00;;;21.47;;
12155;SDS011;6141;49.092;8.516;2024-01-15T03:07:50;38.10;;;21.20;;
12155;SDS011;6141;49.092;8.516;2024-01-15T03:10:19;37.50;;;21.80;;
12155;SDS011;6141;49.092;8.516;2024-01-15T03:12:48;37.77;;;20.27;;
12155;SDS011;6141;49.092;8.516;2024-01-15T03:15:22;37.53;;;21.17;;
12155;SDS011;6141;49.092;8.516;2024-01-15T03:17:51;36.50;;;20.90;;
12155;SDS011;6141;49.092;8.516;2024-01-15T03:20:19;33.60;;;19.73;;
12155;SDS011;6141;49.092;8.516;2024-01-15T03:22:47;36.67;;;20.10;;
12155;SDS011;6141;49.092;8.516;2024-01-15T03:25:15;32.70;;;19.87;;
12155;SDS011;6141;49.092;8.516;2024-01-15T03:27:44;29.40;;;16.70;;
12155;SDS011;6141;49.092;8.516;2024-01-15T03:30:14;33.10;;;19.67;;
12155;SDS011;6141;49.092;8.516;2024-01-15T03:32:42;34.27;;;19.70;;
12155;SDS011;6141;49.092;8.516;2024-01-15T03:35:10;33.17;;;18.80;;
12155;SDS011;6141;49.092;8.516;2024-01-15T03:37:39;33.63;;;19.17;;
12155;SDS011;6141;49.092;8.516;2024-01-15T03:40:07;33.57;;;19.63;;
12155;SDS011;6141;49.092;8.516;2024-01-15T03:42:36;30.83;;;18.93;;
12155;SDS011;6141;49.092;8.516;2024-01-15T03:45:05;33.80;;;19.13;;
12155;SDS011;6141;49.092;8.516;2024-01-15T03:47:34;32.63;;;19.40;;
12155;SDS011;6141;49.092;8.516;2024-01-15T03:50:04;35.67;;;20.43;;
12155;SDS011;6141;49.092;8.516;2024-01-15T03:52:34;33.47;;;19.60;;
12155;SDS011;6141;49.092;8.516;2024-01-15T03:55:03;37.90;;;20.67;;
12155;SDS011;6141;49.092;8.516;2024-01-15T03:57:32;37.23;;;20.73;;
12155;SDS011;6141;49.092;8.516;2024-01-15T04:00:00;33.93;;;20.83;;
12155;SDS011;6141;49.092;8.516;2024-01-15T04:02:30;33.67;;;20.10;;
12155;SDS011;6141;49.092;8.516;2024-01-15T04:04:59;38.57;;;22.43;;
12155;SDS011;6141;49.092;8.516;2024-01-15T04:07:28;35.90;;;20.37;;
12155;SDS011;6141;49.092;8.516;2024-01-15T04:09:56;36.87;;;21.00;;
12155;SDS011;6141;49.092;8.516;2024-01-15T04:12:25;35.13;;;20.07;;
12155;SDS011;6141;49.092;8.516;2024-01-15T04:14:53;32.40;;;19.60;;
12155;SDS011;6141;49.092;8.516;2024-01-15T04:17:21;38.03;;;20.03;;
12155;SDS011;6141;49.092;8.516;2024-01-15T04:19:49;33.23;;;20.23;;
12155;SDS011;6141;49.092;8.516;2024-01-15T04:22:19;37.37;;;21.53;;
12155;SDS011;6141;49.092;8.516;2024-01-15T04:24:47;32.87;;;19.03;;
12155;SDS011;6141;49.092;8.516;2024-01-15T04:27:15;34.03;;;19.67;;
12155;SDS011;6141;49.092;8.516;2024-01-15T04:29:44;33.17;;;18.93;;
12155;SDS011;6141;49.092;8.516;2024-01-15T04:32:12;31.93;;;19.17;;
12155;SDS011;6141;49.092;8.516;2024-01-15T04:34:40;32.53;;;20.20;;
12155;SDS011;6141;49.092;8.516;2024-01-15T04:37:08;30.57;;;19.40;;
12155;SDS011;6141;49.092;8.516;2024-01-15T04:39:38;30.77;;;18.77;;
12155;SDS011;6141;49.092;8.516;2024-01-15T04:42:06;32.07;;;18.60;;
12155;SDS011;6141;49.092;8.516;2024-01-15T04:44:34;30.77;;;19.50;;
12155;SDS011;6141;49.092;8.516;2024-01-15T04:47:02;33.33;;;19.60;;
12155;SDS011;6141;49.092;8.516;2024-01-15T04:49:31;34.60;;;19.80;;
12155;SDS011;6141;49.092;8.516;2024-01-15T04:51:59;31.93;;;19.80;;
12155;SDS011;6141;49.092;8.516;2024-01-15T04:54:27;31.60;;;19.20;;
12155;SDS011;6141;49.092;8.516;2024-01-15T04:56:56;34.77;;;21.00;;
12155;SDS011;6141;49.092;8.516;2024-01-15T04:59:25;36.13;;;20.60;;
12155;SDS011;6141;49.092;8.516;2024-01-15T05:01:53;33.90;;;19.30;;
12155;SDS011;6141;49.092;8.516;2024-01-15T05:04:22;35.13;;;20.33;;
12155;SDS011;6141;49.092;8.516;2024-01-15T05:06:52;32.00;;;19.67;;
12155;SDS011;6141;49.092;8.516;2024-01-15T05:09:21;38.43;;;22.70;;
12155;SDS011;6141;49.092;8.516;2024-01-15T05:11:49;33.73;;;20.50;;
12155;SDS011;6141;49.092;8.516;2024-01-15T05:14:19;34.77;;;20.30;;
12155;SDS011;6141;49.092;8.516;2024-01-15T05:16:47;37.30;;;21.47;;
12155;SDS011;6141;49.092;8.516;2024-01-15T05:19:15;37.57;;;21.77;;
12155;SDS011;6141;49.092;8.516;2024-01-15T05:21:44;34.30;;;20.40;;
12155;SDS011;6141;49.092;8.516;2024-01-15T05:24:12;35.90;;;21.80;;
12155;SDS011;6141;49.092;8.516;2024-01-15T05:26:40;33.20;;;20.17;;
12155;SDS011;6141;49.092;8.516;2024-01-15T05:29:08;38.00;;;20.60;;
12155;SDS011;6141;49.092;8.516;2024-01-15T05:31:38;34.80;;;20.67;;
12155;SDS011;6141;49.092;8.516;2024-01-15T05:34:06;34.47;;;19.80;;
12155;SDS011;6141;49.092;8.516;2024-01-15T05:36:34;35.27;;;21.03;;
12155;SDS011;6141;49.092;8.516;2024-01-15T05:39:03;33.53;;;19.40;;
12155;SDS011;6141;49.092;8.516;2024-01-15T05:41:31;33.80;;;19.60;;
12155;SDS011;6141;49.092;8.516;2024-01-15T05:43:59;32.50;;;18.57;;
12155;SDS011;6141;49.092;8.516;2024-01-15T05:46:27;30.93;;;20.00;;
12155;SDS011;6141;49.092;8.516;2024-01-15T05:48:57;34.10;;;21.13;;
12155;SDS011;6141;49.092;8.516;2024-01-15T05:51:25;29.63;;;18.97;;
12155;SDS011;6141;49.092;8.516;2024-01-15T05:53:53;28.03;;;18.40;;
12155;SDS011;6141;49.092;8.516;2024-01-15T05:56:21;30.80;;;18.70;;
12155;SDS011;6141;49.092;8.516;2024-01-15T05:58:50;32.00;;;20.17;;
12155;SDS011;6141;49.092;8.516;2024-01-15T06:01:18;28.47;;;18.40;;
12155;SDS011;6141;49.092;8.516;2024-01-15T06:03:47;29.97;;;18.53;;
12155;SDS011;6141;49.092;8.516;2024-01-15T06:06:16;32.20;;;19.20;;
12155;SDS011;6141;49.092;8.516;2024-01-15T06:08:45;30.57;;;18.70;;
12155;SDS011;6141;49.092;8.516;2024-01-15T06:11:13;30.60;;;19.33;;
12155;SDS011;6141;49.092;8.516;2024-01-15T06:13:41;29.50;;;18.67;;
12155;SDS011;6141;49.092;8.516;2024-01-15T06:16:13;31.33;;;19.47;;
12155;SDS011;6141;49.092;8.516;2024-01-15T06:18:43;32.63;;;19.40;;
12155;SDS011;6141;49.092;8.516;2024-01-15T06:21:11;31.83;;;19.93;;
12155;SDS011;6141;49.092;8.516;2024-01-15T06:23:43;36.13;;;19.93;;
12155;SDS011;6141;49.092;8.516;2024-01-15T06:26:11;31.00;;;19.53;;
12155;SDS011;6141;49.092;8.516;2024-01-15T06:28:40;32.70;;;19.63;;
12155;SDS011;6141;49.092;8.516;2024-01-15T06:31:08;30.77;;;20.03;;
12155;SDS011;6141;49.092;8.516;2024-01-15T06:33:36;34.97;;;21.80;;
12155;SDS011;6141;49.092;8.516;2024-01-15T06:36:06;38.60;;;21.80;;
12155;SDS011;6141;49.092;8.516;2024-01-15T06:38:34;35.43;;;20.63;;
12155;SDS011;6141;49.092;8.516;2024-01-15T06:41:04;38.43;;;22.20;;
12155;SDS011;6141;49.092;8.516;2024-01-15T06:43:33;38.10;;;22.97;;
12155;SDS011;6141;49.092;8.516;2024-01-15T06:46:01;39.37;;;22.67;;
12155;SDS011;6141;49.092;8.516;2024-01-15T06:48:34;39.33;;;23.60;;
12155;SDS011;6141;49.092;8.516;2024-01-15T06:51:02;39.43;;;22.23;;
12155;SDS011;6141;49.092;8.516;2024-01-15T06:53:31;36.17;;;21.43;;
12155;SDS011;6141;49.092;8.516;2024-01-15T06:55:59;37.33;;;22.87;;
12155;SDS011;6141;49.092;8.516;2024-01-15T06:58:30;37.70;;;21.50;;
12155;SDS011;6141;49.092;8.516;2024-01-15T07:00:59;41.10;;;22.57;;
12155;SDS011;6141;49.092;8.516;2024-01-15T07:03:28;35.07;;;21.33;;
12155;SDS011;6141;49.092;8.516;2024-01-15T07:05:56;40.47;;;22.53;;
12155;SDS011;6141;49.092;8.516;2024-01-15T07:08:25;34.40;;;21.70;;
12155;SDS011;6141;49.092;8.516;2024-01-15T07:10:53;35.43;;;21.97;;
12155;SDS011;6141;49.092;8.516;2024-01-15T07:13:21;33.00;;;21.00;;
12155;SDS011;6141;49.092;8.516;2024-01-15T07:15:51;35.17;;;21.40;;
12155;SDS011;6141;49.092;8.516;2024-01-15T07:18:19;32.07;;;19.70;;
12155;SDS011;6141;49.092;8.516;2024-01-15T07:20:47;31.67;;;19.13;;
12155;SDS011;6141;49.092;8.516;2024-01-15T07:23:16;32.73;;;19.90;;
12155;SDS011;6141;49.092;8.516;2024-01-15T07:25:45;30.83;;;19.27;;
12155;SDS011;6141;49.092;8.516;2024-01-15T07:28:13;31.17;;;19.13;;
12155;SDS011;6141;49.092;8.516;2024-01-15T07:30:41;32.10;;;19.20;;
12155;SDS011;6141;49.092;8.516;2024-01-15T07:33:11;35.77;;;20.00;;
12155;SDS011;6141;49.092;8.516;2024-01-15T07:35:39;30.27;;;19.30;;
12155;SDS011;6141;49.092;8.516;2024-01-15T07:38:07;32.57;;;19.40;;
12155;SDS011;6141;49.092;8.516;2024-01-15T07:40:38;32.93;;;19.13;;
12155;SDS011;6141;49.092;8.516;2024-01-15T07:43:06;32.97;;;19.93;;
12155;SDS011;6141;49.092;8.516;2024-01-15T07:45:34;33.33;;;19.27;;
12155;SDS011;6141;49.092;8.516;2024-01-15T07:48:03;32.87;;;20.07;;
12155;SDS011;6141;49.092;8.516;2024-01-15T07:50:33;32.53;;;18.97;;
12155;SDS011;6141;49.092;8.516;2024-01-15T07:53:02;27.93;;;17.73;;
12155;SDS011;6141;49.092;8.516;2024-01-15T07:55:30;30.27;;;18.97;;
12155;SDS011;6141;49.092;8.516;2024-01-15T07:57:58;31.60;;;19.97;;
12155;SDS011;6141;49.092;8.516;2024-01-15T08:00:40;31.17;;;18.77;;
12155;SDS011;6141;49.092;8.516;2024-01-15T08:03:09;31.33;;;18.97;;
12155;SDS011;6141;49.092;8.516;2024-01-15T08:05:39;30.57;;;18.73;;
12155;SDS011;6141;49.092;8.516;2024-01-15T08:08:07;31.20;;;17.90;;
12155;SDS011;6141;49.092;8.516;2024-01-15T08:10:36;28.20;;;19.13;;
12155;SDS011;6141;49.092;8.516;2024-01-15T08:13:04;31.20;;;19.00;;
12155;SDS011;6141;49.092;8.516;2024-01-15T08:15:34;26.23;;;17.47;;
12155;SDS011;6141;49.092;8.516;2024-01-15T08:18:03;28.73;;;17.37;;
12155;SDS011;6141;49.092;8.516;2024-01-15T08:20:32;28.90;;;17.60;;
12155;SDS011;6141;49.092;8.516;2024-01-15T08:23:02;27.17;;;17.90;;
12155;SDS011;6141;49.092;8.516;2024-01-15T08:25:30;30.80;;;19.87;;
12155;SDS011;6141;49.092;8.516;2024-01-15T08:27:58;26.97;;;17.77;;
12155;SDS011;6141;49.092;8.516;2024-01-15T08:30:26;28.43;;;18.70;;
12155;SDS011;6141;49.092;8.516;2024-01-15T08:32:55;31.87;;;19.10;;
12155;SDS011;6141;49.092;8.516;2024-01-15T08:35:34;28.77;;;19.40;;
12155;SDS011;6141;49.092;8.516;2024-01-15T08:38:03;29.10;;;18.20;;
12155;SDS011;6141;49.092;8.516;2024-01-15T08:40:32;30.57;;;19.23;;
12155;SDS011;6141;49.092;8.516;2024-01-15T08:43:02;30.60;;;19.80;;
12155;SDS011;6141;49.092;8.516;2024-01-15T08:45:33;29.20;;;19.07;;
12155;SDS011;6141;49.092;8.516;2024-01-15T08:48:01;33.00;;;20.07;;
12155;SDS011;6141;49.092;8.516;2024-01-15T08:50:30;31.57;;;20.10;;
12155;SDS011;6141;49.092;8.516;2024-01-15T08:53:01;33.77;;;21.00;;
12155;SDS011;6141;49.092;8.516;2024-01-15T08:55:31;34.30;;;21.00;;
12155;SDS011;6141;49.092;8.516;2024-01-15T08:58:00;32.73;;;20.90;;
12155;SDS011;6141;49.092;8.516;2024-01-15T09:00:28;33.77;;;21.13;;
12155;SDS011;6141;49.092;8.516;2024-01-15T09:02:56;32.87;;;20.83;;
12155;SDS011;6141;49.092;8.516;2024-01-15T09:05:24;33.00;;;21.87;;
12155;SDS011;6141;49.092;8.516;2024-01-15T09:07:53;33.10;;;21.23;;
12155;SDS011;6141;49.092;8.516;2024-01-15T09:10:23;34.93;;;21.27;;
12155;SDS011;6141;49.092;8.516;2024-01-15T09:12:51;33.27;;;22.27;;
12155;SDS011;6141;49.092;8.516;2024-01-15T09:15:20;35.77;;;22.93;;
12155;SDS011;6141;49.092;8.516;2024-01-15T09:17:48;33.17;;;21.73;;
12155;SDS011;6141;49.092;8.516;2024-01-15T09:20:16;34.07;;;20.80;;
12155;SDS011;6141;49.092;8.516;2024-01-15T09:22:45;37.43;;;23.37;;
12155;SDS011;6141;49.092;8.516;2024-01-15T09:25:13;33.93;;;22.00;;
12155;SDS011;6141;49.092;8.516;2024-01-15T09:27:43;37.27;;;22.23;;
12155;SDS011;6141;49.092;8.516;2024-01-15T09:30:12;36.13;;;21.57;;
12155;SDS011;6141;49.092;8.516;2024-01-15T09:32:40;36.03;;;22.80;;
12155;SDS011;6141;49.092;8.516;2024-01-15T09:35:08;33.17;;;22.70;;
12155;SDS011;6141;49.092;8.516;2024-01-15T09:37:38;33.20;;;21.80;;
12155;SDS011;6141;49.092;8.516;2024-01-15T09:40:14;34.73;;;21.13;;
12155;SDS011;6141;49.092;8.516;2024-01-15T09:42:44;31.63;;;21.23;;
12155;SDS011;6141;49.092;8.516;2024-01-15T09:45:14;30.87;;;20.40;;
12155;SDS011;6141;49.092;8.516;2024-01-15T09:47:43;32.33;;;20.60;;
12155;SDS011;6141;49.092;8.516;2024-01-15T09:50:12;33.97;;;20.57;;
12155;SDS011;6141;49.092;8.516;2024-01-15T09:52:42;36.33;;;22.03;;
12155;SDS011;6141;49.092;8.516;2024-01-15T09:55:12;30.33;;;20.40;;
12155;SDS011;6141;49.092;8.516;2024-01-15T09:57:42;30.17;;;20.27;;
12155;SDS011;6141;49.092;8.516;2024-01-15T10:00:14;28.83;;;19.33;;
12155;SDS011;6141;49.092;8.516;2024-01-15T10:02:45;34.40;;;20.93;;
12155;SDS011;6141;49.092;8.516;2024-01-15T10:05:13;33.13;;;21.07;;
12155;SDS011;6141;49.092;8.516;2024-01-15T10:07:42;29.47;;;19.67;;
12155;SDS011;6141;49.092;8.516;2024-01-15T10:10:11;30.53;;;19.43;;
12155;SDS011;6141;49.092;8.516;2024-01-15T10:12:39;31.80;;;20.93;;
12155;SDS011;6141;49.092;8.516;2024-01-15T10:15:10;36.40;;;22.10;;
12155;SDS011;6141;49.092;8.516;2024-01-15T10:17:39;32.53;;;21.63;;
12155;SDS011;6141;49.092;8.516;2024-01-15T10:20:08;34.20;;;23.03;;
12155;SDS011;6141;49.092;8.516;2024-01-15T10:22:39;35.93;;;22.50;;
12155;SDS011;6141;49.092;8.516;2024-01-15T10:25:12;33.77;;;22.50;;
12155;SDS011;6141;49.092;8.516;2024-01-15T10:27:41;35.73;;;22.33;;
12155;SDS011;6141;49.092;8.516;2024-01-15T10:30:11;38.47;;;24.20;;
12155;SDS011;6141;49.092;8.516;2024-01-15T10:32:41;41.37;;;25.33;;
12155;SDS011;6141;49.092;8.516;2024-01-15T10:35:09;38.80;;;24.03;;
12155;SDS011;6141;49.092;8.516;2024-01-15T10:37:38;34.70;;;23.17;;
12155;SDS011;6141;49.092;8.516;2024-01-15T10:40:08;43.43;;;26.63;;
12155;SDS011;6141;49.092;8.516;2024-01-15T10:42:36;39.70;;;25.07;;
12155;SDS011;6141;49.092;8.516;2024-01-15T10:45:05;48.17;;;27.50;;
12155;SDS011;6141;49.092;8.516;2024-01-15T10:47:36;41.63;;;25.40;;
12155;SDS011;6141;49.092;8.516;2024-01-15T10:50:05;39.17;;;25.37;;
12155;SDS011;6141;49.092;8.516;2024-01-15T10:52:35;41.27;;;24.33;;
12155;SDS011;6141;49.092;8.516;2024-01-15T10:55:41;49.70;;;27.73;;
12155;SDS011;6141;49.092;8.516;2024-01-15T10:58:10;47.50;;;27.57;;
12155;SDS011;6141;49.092;8.516;2024-01-15T11:00:38;39.93;;;24.80;;
12155;SDS011;6141;49.092;8.516;2024-01-15T11:03:08;48.63;;;27.30;;
12155;SDS011;6141;49.092;8.516;2024-01-15T11:05:37;45.03;;;26.60;;
12155;SDS011;6141;49.092;8.516;2024-01-15T11:08:06;46.03;;;26.60;;
12155;SDS011;6141;49.092;8.516;2024-01-15T11:10:37;52.60;;;29.13;;
12155;SDS011;6141;49.092;8.516;2024-01-15T11:13:10;42.43;;;26.03;;
12155;SDS011;6141;49.092;8.516;2024-01-15T11:15:54;39.27;;;25.03;;
12155;SDS011;6141;49.092;8.516;2024-01-15T11:18:25;43.20;;;26.77;;
12155;SDS011;6141;49.092;8.516;2024-01-15T11:23:53;42.37;;;24.83;;
12155;SDS011;6141;49.092;8.516;2024-01-15T11:26:27;42.63;;;25.50;;
12155;SDS011;6141;49.092;8.516;2024-01-15T11:28:55;41.93;;;25.33;;
12155;SDS011;6141;49.092;8.516;2024-01-15T11:31:28;48.17;;;26.93;;
12155;SDS011;6141;49.092;8.516;2024-01-15T11:33:59;44.63;;;25.90;;
12155;SDS011;6141;49.092;8.516;2024-01-15T11:39:39;40.27;;;22.90;;
12155;SDS011;6141;49.092;8.516;2024-01-15T11:42:09;40.70;;;22.93;;
12155;SDS011;6141;49.092;8.516;2024-01-15T11:44:38;41.23;;;24.07;;
12155;SDS011;6141;49.092;8.516;2024-01-15T11:47:07;40.50;;;23.33;;
12155;SDS011;6141;49.092;8.516;2024-01-15T11:49:58;41.07;;;24.87;;
12155;SDS011;6141;49.092;8.516;2024-01-15T11:52:32;41.33;;;23.43;;
12155;SDS011;6141;49.092;8.516;2024-01-15T11:55:02;38.80;;;23.20;;
12155;SDS011;6141;49.092;8.516;2024-01-15T11:57:45;41.80;;;23.63;;
12155;SDS011;6141;49.092;8.516;2024-01-15T12:00:14;37.43;;;22.37;;
12155;SDS011;6141;49.092;8.516;2024-01-15T12:02:43;40.43;;;23.43;;
12155;SDS011;6141;49.092;8.516;2024-01-15T12:05:14;38.20;;;22.57;;
12155;SDS011;6141;49.092;8.516;2024-01-15T12:07:44;32.80;;;20.43;;
12155;SDS011;6141;49.092;8.516;2024-01-15T12:10:14;39.50;;;24.10;;
12155;SDS011;6141;49.092;8.516;2024-01-15T12:12:49;37.27;;;23.20;;
12155;SDS011;6141;49.092;8.516;2024-01-15T12:15:27;37.73;;;23.40;;
12155;SDS011;6141;49.092;8.516;2024-01-15T12:17:57;36.83;;;22.17;;
12155;SDS011;6141;49.092;8.516;2024-01-15T12:20:28;35.47;;;21.67;;
12155;SDS011;6141;49.092;8.516;2024-01-15T12:22:57;29.70;;;18.60;;
12155;SDS011;6141;49.092;8.516;2024-01-15T12:25:30;36.57;;;23.13;;
12155;SDS011;6141;49.092;8.516;2024-01-15T12:27:59;37.17;;;23.83;;
12155;SDS011;6141;49.092;8.516;2024-01-15T12:30:28;36.83;;;22.43;;
12155;SDS011;6141;49.092;8.516;2024-01-15T12:32:58;37.60;;;22.60;;
12155;SDS011;6141;49.092;8.516;2024-01-15T12:35:30;37.80;;;22.37;;
12155;SDS011;6141;49.092;8.516;2024-01-15T12:37:59;36.97;;;23.20;;
12155;SDS011;6141;49.092;8.516;2024-01-15T12:40:29;36.13;;;21.93;;
12155;SDS011;6141;49.092;8.516;2024-01-15T12:42:58;33.80;;;21.13;;
12155;SDS011;6141;49.092;8.516;2024-01-15T12:45:27;36.00;;;22.00;;
12155;SDS011;6141;49.092;8.516;2024-01-15T12:47:55;33.23;;;21.20;;
12155;SDS011;6141;49.092;8.516;2024-01-15T12:50:24;30.87;;;20.60;;
12155;SDS011;6141;49.092;8.516;2024-01-15T12:52:54;32.80;;;21.43;;
12155;SDS011;6141;49.092;8.516;2024-01-15T12:55:23;30.97;;;20.67;;
12155;SDS011;6141;49.092;8.516;2024-01-15T12:57:51;31.90;;;20.67;;
12155;SDS011;6141;49.092;8.516;2024-01-15T13:00:21;29.20;;;20.07;;
12155;SDS011;6141;49.092;8.516;2024-01-15T13:02:52;24.87;;;17.87;;
12155;SDS011;6141;49.092;8.516;2024-01-15T13:05:21;29.87;;;20.30;;
12155;SDS011;6141;49.092;8.516;2024-01-15T13:07:51;28.30;;;19.57;;
12155;SDS011;6141;49.092;8.516;2024-01-15T13:10:20;27.60;;;19.13;;
12155;SDS011;6141;49.092;8.516;2024-01-15T13:12:51;28.63;;;18.37;;
12155;SDS011;6141;49.092;8.516;2024-01-15T13:15:20;24.27;;;18.20;;
12155;SDS011;6141;49.092;8.516;2024-01-15T13:17:48;25.40;;;17.83;;
12155;SDS011;6141;49.092;8.516;2024-01-15T13:20:16;21.17;;;15.50;;
12155;SDS011;6141;49.092;8.516;2024-01-15T13:22:45;24.47;;;16.90;;
12155;SDS011;6141;49.092;8.516;2024-01-15T13:25:13;21.30;;;16.27;;
12155;SDS011;6141;49.092;8.516;2024-01-15T13:27:44;21.80;;;16.27;;
12155;SDS011;6141;49.092;8.516;2024-01-15T13:30:13;21.13;;;15.23;;
12155;SDS011;6141;49.092;8.516;2024-01-15T13:32:42;21.70;;;14.97;;
12155;SDS011;6141;49.092;8.516;2024-01-15T13:35:10;19.43;;;14.67;;
12155;SDS011;6141;49.092;8.516;2024-01-15T13:37:40;20.60;;;15.20;;
12155;SDS011;6141;49.092;8.516;2024-01-15T13:40:09;20.07;;;14.60;;
12155;SDS011;6141;49.092;8.516;2024-01-15T13:42:45;19.00;;;14.10;;
12155;SDS011;6141;49.092;8.516;2024-01-15T13:45:14;19.43;;;14.00;;
12155;SDS011;6141;49.092;8.516;2024-01-15T13:47:42;20.93;;;14.87;;
12155;SDS011;6141;49.092;8.516;2024-01-15T13:50:11;18.70;;;14.60;;
12155;SDS011;6141;49.092;8.516;2024-01-15T13:52:40;15.67;;;13.30;;
12155;SDS011;6141;49.092;8.516;2024-01-15T13:55:08;17.73;;;13.77;;
12155;SDS011;6141;49.092;8.516;2024-01-15T13:57:37;18.33;;;13.13;;
12155;SDS011;6141;49.092;8.516;2024-01-15T14:00:07;17.17;;;13.33;;
12155;SDS011;6141;49.092;8.516;2024-01-15T14:02:39;19.17;;;14.47;;
12155;SDS011;6141;49.092;8.516;2024-01-15T14:05:07;18.93;;;14.13;;
12155;SDS011;6141;49.092;8.516;2024-01-15T14:07:37;17.17;;;13.17;;
12155;SDS011;6141;49.092;8.516;2024-01-15T14:10:05;18.20;;;13.47;;
12155;SDS011;6141;49.092;8.516;2024-01-15T14:12:34;19.33;;;13.90;;
12155;SDS011;6141;49.092;8.516;2024-01-15T14:15:03;17.33;;;13.30;;
12155;SDS011;6141;49.092;8.516;2024-01-15T14:17:34;18.60;;;14.17;;
12155;SDS011;6141;49.092;8.516;2024-01-15T14:20:02;17.27;;;13.90;;
12155;SDS011;6141;49.092;8.516;2024-01-15T14:22:32;20.33;;;14.00;;
12155;SDS011;6141;49.092;8.516;2024-01-15T14:25:00;22.17;;;14.97;;
12155;SDS011;6141;49.092;8.516;2024-01-15T14:27:47;19.47;;;13.90;;
12155;SDS011;6141;49.092;8.516;2024-01-15T14:30:17;20.73;;;14.10;;
12155;SDS011;6141;49.092;8.516;2024-01-15T14:32:47;22.47;;;15.60;;
12155;SDS011;6141;49.092;8.516;2024-01-15T14:35:15;16.63;;;13.23;;
12155;SDS011;6141;49.092;8.516;2024-01-15T14:37:43;15.40;;;12.37;;
12155;SDS011;6141;49.092;8.516;2024-01-15T14:40:12;16.83;;;12.87;;
12155;SDS011;6141;49.092;8.516;2024-01-15T14:42:43;15.90;;;12.90;;
12155;SDS011;6141;49.092;8.516;2024-01-15T14:45:11;18.13;;;13.73;;
12155;SDS011;6141;49.092;8.516;2024-01-15T14:47:40;15.80;;;12.37;;
12155;SDS011;6141;49.092;8.516;2024-01-15T14:50:10;14.07;;;12.57;;
12155;SDS011;6141;49.092;8.516;2024-01-15T14:52:38;14.80;;;13.13;;